createdAt,value
2023-05-21T00:04:33.775Z,100.00
2023-05-21T00:09:38.205Z,100.00
2023-05-21T00:14:40.892Z,100.00
2023-05-21T00:19:50.085Z,100.00
2023-05-21T00:24:53.110Z,100.00
2023-05-21T00:29:55.895Z,100.00
2023-05-21T00:35:00.259Z,100.00
2023-05-21T00:40:06.527Z,100.00
2023-05-21T00:45:10.107Z,100.00
2023-05-21T00:50:21.741Z,100.00
2023-05-21T00:55:25.377Z,100.00
2023-05-21T01:00:28.720Z,100.00
2023-05-21T01:05:33.106Z,100.00
2023-05-21T01:10:35.958Z,100.00
2023-05-21T01:15:39.152Z,100.00
2023-05-21T01:20:48.275Z,100.00
2023-05-21T01:25:54.803Z,100.00
2023-05-21T01:31:03.639Z,100.00
2023-05-21T01:36:25.120Z,100.00
2023-05-21T01:41:33.922Z,100.00
2023-05-21T01:46:37.785Z,100.00
2023-05-21T01:51:41.075Z,100.00
2023-05-21T01:56:47.795Z,100.00
2023-05-21T02:01:50.599Z,100.00
2023-05-21T02:06:54.750Z,100.00
2023-05-21T02:11:59.129Z,100.00
2023-05-21T02:17:02.289Z,100.00
2023-05-21T02:22:05.154Z,100.00
2023-05-21T02:27:10.502Z,100.00
2023-05-21T02:32:13.900Z,100.00
2023-05-21T02:37:18.858Z,100.00
2023-05-21T02:42:23.601Z,100.00
2023-05-21T02:47:28.169Z,100.00
2023-05-21T02:52:31.282Z,100.00
2023-05-21T02:57:35.663Z,100.00
2023-05-21T03:02:38.505Z,100.00
2023-05-21T03:07:41.978Z,100.00
2023-05-21T03:12:46.099Z,100.00
2023-05-21T03:17:49.844Z,100.00
2023-05-21T03:22:55.369Z,100.00
2023-05-21T03:27:59.628Z,100.00
2023-05-21T03:33:20.730Z,100.00
2023-05-21T03:38:26.212Z,100.00
2023-05-21T03:43:32.645Z,100.00
2023-05-21T03:48:35.671Z,100.00
2023-05-21T03:53:38.382Z,100.00
2023-05-21T03:58:42.726Z,100.00
2023-05-21T04:03:45.787Z,100.00
2023-05-21T04:08:49.930Z,100.00
2023-05-21T04:13:56.797Z,100.00
2023-05-21T04:18:59.548Z,100.00
2023-05-21T04:24:03.820Z,100.00
2023-05-21T04:29:29.882Z,100.00
2023-05-21T04:34:33.900Z,100.00
2023-05-21T04:39:40.966Z,100.00
2023-05-21T04:44:45.523Z,100.00
2023-05-21T04:49:48.564Z,100.00
2023-05-21T04:54:51.748Z,100.00
2023-05-21T04:59:58.159Z,100.00
2023-05-21T05:05:02.282Z,100.00
2023-05-21T05:10:09.672Z,100.00
2023-05-21T05:15:13.891Z,100.00
2023-05-21T05:20:17.199Z,100.00
2023-05-21T05:25:22.983Z,100.00
2023-05-21T05:30:28.574Z,100.00
2023-05-21T05:35:39.495Z,100.00
2023-05-21T05:40:43.440Z,100.00
2023-05-21T05:45:50.202Z,100.00
2023-05-21T05:50:54.610Z,100.00
2023-05-21T05:55:57.953Z,100.00
2023-05-21T06:01:03.013Z,100.00
2023-05-21T06:06:06.120Z,100.00
2023-05-21T06:11:09.547Z,100.00
2023-05-21T06:16:13.791Z,100.00
2023-05-21T06:21:16.718Z,100.00
2023-05-21T06:26:21.984Z,100.00
2023-05-21T06:31:28.032Z,100.00
2023-05-21T06:36:32.682Z,100.00
2023-05-21T06:41:39.654Z,100.00
2023-05-21T06:47:23.107Z,100.00
2023-05-21T06:52:53.436Z,100.00
2023-05-21T06:58:02.642Z,100.00
2023-05-21T07:03:08.649Z,100.00
2023-05-21T07:08:14.379Z,100.00
2023-05-21T07:13:17.557Z,100.00
2023-05-21T07:18:22.261Z,100.00
2023-05-21T07:23:26.227Z,100.00
2023-05-21T07:28:29.006Z,100.00
2023-05-21T07:33:36.671Z,100.00
2023-05-21T07:38:40.216Z,100.00
2023-05-21T07:43:44.915Z,100.00
2023-05-21T07:48:57.281Z,100.00
2023-05-21T07:54:01.103Z,100.00
2023-05-21T07:59:08.845Z,100.00
2023-05-21T08:04:16.670Z,100.00
2023-05-21T08:09:21.676Z,100.00
2023-05-21T08:14:26.500Z,100.00
2023-05-21T08:19:33.924Z,100.00
2023-05-21T08:24:37.579Z,100.00
2023-05-21T08:29:40.521Z,100.00
2023-05-21T08:34:49.228Z,100.00
2023-05-21T08:40:16.286Z,100.00
2023-05-21T08:45:25.627Z,100.00
2023-05-21T08:50:32.485Z,100.00
2023-05-21T08:55:46.684Z,100.00
2023-05-21T09:00:59.612Z,100.00
2023-05-21T09:06:09.177Z,100.00
2023-05-21T09:11:15.658Z,100.00
2023-05-21T09:16:35.870Z,100.00
2023-05-21T09:21:43.482Z,100.00
2023-05-21T09:27:12.288Z,100.00
2023-05-21T09:32:18.991Z,100.00
2023-05-21T09:37:27.402Z,100.00
2023-05-21T09:42:49.347Z,100.00
2023-05-21T09:48:09.553Z,100.00
2023-05-21T09:53:47.336Z,100.00
2023-05-21T09:58:40.948Z,100.00
2023-05-21T10:03:50.747Z,100.00
2023-05-21T10:09:02.548Z,100.00
2023-05-21T10:14:10.501Z,100.00
2023-05-21T10:19:19.561Z,100.00
2023-05-21T10:24:25.887Z,100.00
2023-05-21T10:29:30.383Z,100.00
2023-05-21T10:34:33.220Z,100.00
2023-05-21T10:39:39.956Z,100.00
2023-05-21T10:45:01.388Z,100.00
2023-05-21T10:50:27.684Z,100.00
2023-05-21T10:55:58.322Z,100.00
2023-05-21T11:01:07.040Z,100.00
2023-05-21T11:06:11.674Z,100.00
2023-05-21T11:11:43.764Z,100.00
2023-05-21T11:16:49.399Z,100.00
2023-05-21T11:21:52.566Z,100.00
2023-05-21T11:27:04.652Z,100.00
2023-05-21T11:32:09.191Z,100.00
2023-05-21T11:37:40.756Z,100.00
2023-05-21T11:43:03.217Z,100.00
2023-05-21T11:48:08.771Z,100.00
2023-05-21T11:53:18.336Z,100.00
2023-05-21T11:58:23.033Z,100.00
2023-05-21T12:03:30.840Z,100.00
2023-05-21T12:08:34.508Z,100.00
2023-05-21T12:13:40.673Z,100.00
2023-05-21T12:18:46.577Z,100.00
2023-05-21T12:24:00.999Z,100.00
2023-05-21T12:29:08.031Z,100.00
2023-05-21T12:34:11.933Z,97.27
2023-05-21T12:39:15.847Z,98.42
2023-05-21T12:44:20.146Z,98.50
2023-05-21T12:49:34.981Z,97.45
2023-05-21T12:54:38.898Z,98.13
2023-05-21T12:59:51.052Z,95.27
2023-05-21T13:04:58.987Z,94.91
2023-05-21T13:10:06.695Z,95.10
2023-05-21T13:15:27.812Z,91.29
2023-05-21T13:20:36.342Z,93.32
2023-05-21T13:25:40.053Z,92.52
2023-05-21T13:30:46.694Z,90.69
2023-05-21T13:35:51.961Z,90.18
2023-05-21T13:40:55.245Z,88.52
2023-05-21T13:45:59.416Z,86.86
2023-05-21T13:51:02.263Z,86.30
2023-05-21T13:56:07.160Z,83.16
2023-05-21T14:01:13.830Z,88.15
2023-05-21T14:06:17.311Z,89.70
2023-05-21T14:11:20.393Z,88.78
2023-05-21T14:16:27.199Z,88.18
2023-05-21T14:21:32.749Z,87.44
2023-05-21T14:26:36.917Z,89.93
2023-05-21T14:31:41.642Z,89.71
2023-05-21T14:36:44.502Z,90.75
2023-05-21T14:41:47.410Z,90.59
2023-05-21T14:46:52.165Z,92.39
2023-05-21T14:51:57.141Z,93.03
2023-05-21T14:57:00.024Z,93.24
2023-05-21T15:02:04.503Z,90.85
2023-05-21T15:07:07.737Z,95.00
2023-05-21T15:12:10.844Z,96.79
2023-05-21T15:17:15.092Z,98.27
2023-05-21T15:22:19.146Z,100.00
2023-05-21T15:27:35.953Z,100.00
2023-05-21T15:32:39.984Z,100.00
2023-05-21T15:37:47.537Z,100.00
2023-05-21T15:42:50.431Z,100.00
2023-05-21T15:47:54.743Z,100.00
2023-05-21T15:52:57.756Z,100.00
2023-05-21T15:58:02.238Z,100.00
2023-05-21T16:03:06.859Z,100.00
2023-05-21T16:08:10.703Z,100.00
2023-05-21T16:13:13.504Z,99.87
2023-05-21T16:18:17.719Z,100.00
2023-05-21T16:23:20.437Z,100.00
2023-05-21T16:28:24.237Z,100.00
2023-05-21T16:33:37.570Z,100.00
2023-05-21T16:38:40.278Z,100.00
2023-05-21T16:43:43.137Z,100.00
2023-05-21T16:48:47.247Z,100.00
2023-05-21T16:53:49.998Z,100.00
2023-05-21T16:58:52.812Z,100.00
2023-05-21T17:03:57.203Z,100.00
2023-05-21T17:09:00.398Z,100.00
2023-05-21T17:14:03.209Z,100.00
2023-05-21T17:19:07.425Z,100.00
2023-05-21T17:24:10.283Z,100.00
2023-05-21T17:29:13.033Z,100.00
2023-05-21T17:34:17.892Z,100.00
2023-05-21T17:39:21.003Z,100.00
2023-05-21T17:44:23.852Z,100.00
2023-05-21T17:49:35.435Z,100.00
2023-05-21T17:54:41.429Z,100.00
2023-05-21T17:59:46.445Z,100.00
2023-05-21T18:04:50.930Z,100.00
2023-05-21T18:09:53.784Z,100.00
2023-05-21T18:15:02.238Z,100.00
2023-05-21T18:26:22.797Z,100.00
2023-05-21T18:31:26.174Z,100.00
2023-05-21T18:36:58.749Z,100.00
2023-05-21T18:42:12.951Z,100.00
2023-05-21T18:47:50.613Z,100.00
2023-05-21T18:59:32.355Z,100.00
2023-05-21T19:04:52.668Z,100.00
2023-05-21T19:10:12.015Z,100.00
2023-05-21T19:16:06.818Z,100.00
2023-05-21T19:21:52.587Z,100.00
2023-05-21T19:27:58.125Z,100.00
2023-05-21T19:33:13.215Z,100.00
2023-05-21T19:44:12.740Z,100.00
2023-05-21T19:49:15.800Z,100.00
2023-05-21T19:54:18.964Z,100.00
2023-05-21T19:59:26.172Z,100.00
2023-05-21T20:04:28.881Z,100.00
2023-05-21T20:09:32.102Z,100.00
2023-05-21T20:14:36.174Z,100.00
2023-05-21T20:19:40.297Z,100.00
2023-05-21T20:24:42.962Z,100.00
2023-05-21T20:29:47.533Z,100.00
2023-05-21T20:35:02.859Z,100.00
2023-05-21T20:40:09.079Z,100.00
2023-05-21T20:45:15.655Z,100.00
2023-05-21T20:50:21.666Z,100.00
2023-05-21T20:55:24.520Z,100.00
2023-05-21T21:00:30.597Z,100.00
2023-05-21T21:05:33.299Z,100.00
2023-05-21T21:10:36.922Z,100.00
2023-05-21T21:15:43.604Z,100.00
2023-05-21T21:20:49.487Z,100.00
2023-05-21T21:25:52.502Z,100.00
2023-05-21T21:30:56.611Z,100.00
2023-05-21T21:36:03.034Z,100.00
2023-05-21T21:41:07.446Z,100.00
2023-05-21T21:46:12.128Z,100.00
2023-05-21T21:51:15.589Z,100.00
2023-05-21T21:56:18.464Z,100.00
2023-05-21T22:01:22.717Z,100.00
2023-05-21T22:06:28.512Z,100.00
2023-05-21T22:11:32.059Z,100.00
2023-05-21T22:16:43.824Z,100.00
2023-05-21T22:21:46.609Z,100.00
2023-05-21T22:26:49.626Z,100.00
2023-05-21T22:31:53.916Z,100.00
2023-05-21T22:36:57.810Z,100.00
2023-05-21T22:42:00.772Z,100.00
2023-05-21T22:47:05.364Z,100.00
2023-05-21T22:52:13.250Z,100.00
2023-05-21T22:57:16.053Z,100.00
2023-05-21T23:02:20.271Z,100.00
2023-05-21T23:07:23.002Z,100.00
2023-05-21T23:12:25.882Z,100.00
2023-05-21T23:17:29.997Z,100.00
2023-05-21T23:22:32.845Z,100.00
2023-05-21T23:27:35.834Z,100.00
2023-05-21T23:32:39.963Z,100.00
2023-05-21T23:37:48.824Z,100.00
2023-05-21T23:42:51.540Z,100.00
2023-05-21T23:47:55.845Z,100.00
2023-05-21T23:52:59.512Z,100.00
2023-05-21T23:58:06.709Z,100.00
